sensor_id;sensor_type;location;lat;lon;timestamp;pressure;altitude;pressure_sealevel;temperature;humidity
37634;BME280;32048;49.902;22.508;2023-08-21T00:00:16;99123.44;;;19.45;100.00
37634;BME280;32048;49.902;22.508;2023-08-21T00:03:03;99122.69;;;19.43;100.00
37634;BME280;32048;49.902;22.508;2023-08-21T00:05:31;99131.00;;;19.40;100.00
37634;BME280;32048;49.902;22.508;2023-08-21T00:07:58;99133.41;;;19.43;100.00
37634;BME280;32048;49.902;22.508;2023-08-21T00:10:25;99129.03;;;19.42;100.00
37634;BME280;32048;49.902;22.508;2023-08-21T00:12:53;99125.50;;;19.41;100.00
37634;BME280;32048;49.902;22.508;2023-08-21T00:15:20;99120.41;;;19.38;100.00
37634;BME280;32048;49.902;22.508;2023-08-21T00:17:47;99123.09;;;19.38;100.00
37634;BME280;32048;49.902;22.508;2023-08-21T00:20:14;99128.16;;;19.41;100.00
37634;BME280;32048;49.902;22.508;2023-08-21T00:22:41;99123.69;;;19.42;100.00
37634;BME280;32048;49.902;22.508;2023-08-21T00:25:08;99123.53;;;19.43;100.00
37634;BME280;32048;49.902;22.508;2023-08-21T00:27:35;99128.78;;;19.45;100.00
37634;BME280;32048;49.902;22.508;2023-08-21T00:30:03;99127.78;;;19.46;100.00
37634;BME280;32048;49.902;22.508;2023-08-21T00:32:29;99135.72;;;19.47;100.00
37634;BME280;32048;49.902;22.508;2023-08-21T00:34:57;99129.50;;;19.47;100.00
37634;BME280;32048;49.902;22.508;2023-08-21T00:37:24;99132.41;;;19.44;100.00
37634;BME280;32048;49.902;22.508;2023-08-21T00:39:51;99124.25;;;19.45;100.00
37634;BME280;32048;49.902;22.508;2023-08-21T00:42:18;99128.78;;;19.45;100.00
37634;BME280;32048;49.902;22.508;2023-08-21T00:44:45;99134.41;;;19.42;100.00
37634;BME280;32048;49.902;22.508;2023-08-21T00:47:12;99131.47;;;19.45;100.00
37634;BME280;32048;49.902;22.508;2023-08-21T00:49:39;99130.09;;;19.50;100.00
37634;BME280;32048;49.902;22.508;2023-08-21T00:52:12;99129.00;;;19.53;100.00
37634;BME280;32048;49.902;22.508;2023-08-21T00:54:41;99133.97;;;19.58;100.00
37634;BME280;32048;49.902;22.508;2023-08-21T00:57:08;99133.25;;;19.56;100.00
37634;BME280;32048;49.902;22.508;2023-08-21T00:59:37;99136.38;;;19.61;100.00
37634;BME280;32048;49.902;22.508;2023-08-21T01:02:04;99136.50;;;19.59;100.00
37634;BME280;32048;49.902;22.508;2023-08-21T01:04:31;99135.09;;;19.55;100.00
37634;BME280;32048;49.902;22.508;2023-08-21T01:06:58;99133.38;;;19.54;100.00
37634;BME280;32048;49.902;22.508;2023-08-21T01:09:31;99138.13;;;19.50;100.00
37634;BME280;32048;49.902;22.508;2023-08-21T01:12:14;99141.78;;;19.49;100.00
37634;BME280;32048;49.902;22.508;2023-08-21T01:17:16;99138.84;;;19.52;100.00
37634;BME280;32048;49.902;22.508;2023-08-21T01:19:48;99132.75;;;19.50;100.00
37634;BME280;32048;49.902;22.508;2023-08-21T01:22:16;99137.88;;;19.53;100.00
37634;BME280;32048;49.902;22.508;2023-08-21T01:24:43;99139.00;;;19.51;100.00
37634;BME280;32048;49.902;22.508;2023-08-21T01:27:12;99137.28;;;19.50;100.00
37634;BME280;32048;49.902;22.508;2023-08-21T01:29:39;99137.28;;;19.50;100.00
37634;BME280;32048;49.902;22.508;2023-08-21T01:32:21;99127.56;;;19.49;100.00
37634;BME280;32048;49.902;22.508;2023-08-21T01:34:51;99131.56;;;19.43;100.00
37634;BME280;32048;49.902;22.508;2023-08-21T01:37:19;99131.19;;;19.48;100.00
37634;BME280;32048;49.902;22.508;2023-08-21T01:39:46;99137.44;;;19.48;100.00
37634;BME280;32048;49.902;22.508;2023-08-21T01:42:13;99134.03;;;19.46;100.00
37634;BME280;32048;49.902;22.508;2023-08-21T01:44:40;99139.94;;;19.50;100.00
37634;BME280;32048;49.902;22.508;2023-08-21T01:47:07;99133.03;;;19.47;100.00
37634;BME280;32048;49.902;22.508;2023-08-21T01:49:35;99131.19;;;19.48;100.00
37634;BME280;32048;49.902;22.508;2023-08-21T01:52:02;99141.78;;;19.49;100.00
37634;BME280;32048;49.902;22.508;2023-08-21T01:54:29;99134.88;;;19.47;100.00
37634;BME280;32048;49.902;22.508;2023-08-21T01:56:56;99133.28;;;19.44;100.00
37634;BME280;32048;49.902;22.508;2023-08-21T01:59:24;99133.53;;;19.41;100.00
37634;BME280;32048;49.902;22.508;2023-08-21T02:01:51;99141.44;;;19.43;100.00
37634;BME280;32048;49.902;22.508;2023-08-21T02:04:18;99138.88;;;19.41;100.00
37634;BME280;32048;49.902;22.508;2023-08-21T02:06:45;99137.94;;;19.42;100.00
37634;BME280;32048;49.902;22.508;2023-08-21T02:09:12;99134.41;;;19.42;100.00
37634;BME280;32048;49.902;22.508;2023-08-21T02:11:39;99139.50;;;19.45;100.00
37634;BME280;32048;49.902;22.508;2023-08-21T02:14:07;99136.94;;;19.43;100.00
37634;BME280;32048;49.902;22.508;2023-08-21T02:16:34;99144.25;;;19.41;100.00
37634;BME280;32048;49.902;22.508;2023-08-21T02:19:01;99146.81;;;19.43;100.00
37634;BME280;32048;49.902;22.508;2023-08-21T02:21:28;99150.31;;;19.43;100.00
37634;BME280;32048;49.902;22.508;2023-08-21T02:23:55;99147.66;;;19.43;100.00
37634;BME280;32048;49.902;22.508;2023-08-21T02:26:22;99147.78;;;19.42;100.00
37634;BME280;32048;49.902;22.508;2023-08-21T02:28:49;99145.13;;;19.42;100.00
37634;BME280;32048;49.902;22.508;2023-08-21T02:31:16;99140.59;;;19.42;100.00
37634;BME280;32048;49.902;22.508;2023-08-21T02:33:43;99148.03;;;19.39;100.00
37634;BME280;32048;49.902;22.508;2023-08-21T02:36:10;99145.22;;;19.40;100.00
37634;BME280;32048;49.902;22.508;2023-08-21T02:38:37;99139.41;;;19.35;100.00
37634;BME280;32048;49.902;22.508;2023-08-21T02:41:04;99141.47;;;19.31;100.00
37634;BME280;32048;49.902;22.508;2023-08-21T02:43:31;99136.84;;;19.34;100.00
37634;BME280;32048;49.902;22.508;2023-08-21T02:45:58;99131.03;;;19.28;100.00
37634;BME280;32048;49.902;22.508;2023-08-21T02:48:26;99133.31;;;19.33;100.00
37634;BME280;32048;49.902;22.508;2023-08-21T02:50:52;99142.13;;;19.24;100.00
37634;BME280;32048;49.902;22.508;2023-08-21T02:53:20;99128.97;;;19.21;100.00
37634;BME280;32048;49.902;22.508;2023-08-21T02:55:47;99133.38;;;19.22;100.00
37634;BME280;32048;49.902;22.508;2023-08-21T02:58:14;99127.13;;;19.21;100.00
37634;BME280;32048;49.902;22.508;2023-08-21T03:00:41;99135.44;;;19.18;100.00
37634;BME280;32048;49.902;22.508;2023-08-21T03:03:08;99135.31;;;19.20;100.00
37634;BME280;32048;49.902;22.508;2023-08-21T03:05:35;99130.06;;;19.18;100.00
37634;BME280;32048;49.902;22.508;2023-08-21T03:08:03;99130.91;;;19.19;100.00
37634;BME280;32048;49.902;22.508;2023-08-21T03:10:30;99138.22;;;19.17;100.00
37634;BME280;32048;49.902;22.508;2023-08-21T03:13:00;99141.41;;;19.22;100.00
37634;BME280;32048;49.902;22.508;2023-08-21T03:15:27;99136.28;;;19.19;100.00
37634;BME280;32048;49.902;22.508;2023-08-21T03:17:55;99150.66;;;19.18;100.00
37634;BME280;32048;49.902;22.508;2023-08-21T03:20:23;99146.25;;;19.17;100.00
37634;BME280;32048;49.902;22.508;2023-08-21T03:22:50;99142.50;;;19.19;100.00
37634;BME280;32048;49.902;22.508;2023-08-21T03:25:17;99145.53;;;19.15;100.00
37634;BME280;32048;49.902;22.508;2023-08-21T03:27:44;99143.72;;;19.15;100.00
37634;BME280;32048;49.902;22.508;2023-08-21T03:30:16;99137.47;;;19.15;100.00
37634;BME280;32048;49.902;22.508;2023-08-21T03:32:43;99143.56;;;19.17;100.00
37634;BME280;32048;49.902;22.508;2023-08-21T03:35:11;99139.22;;;19.16;100.00
37634;BME280;32048;49.902;22.508;2023-08-21T03:37:38;99151.50;;;19.18;100.00
37634;BME280;32048;49.902;22.508;2023-08-21T03:40:05;99147.72;;;19.21;100.00
37634;BME280;32048;49.902;22.508;2023-08-21T03:42:33;99148.44;;;19.23;100.00
37634;BME280;32048;49.902;22.508;2023-08-21T03:45:01;99148.91;;;19.28;100.00
37634;BME280;32048;49.902;22.508;2023-08-21T03:47:30;99153.03;;;19.32;100.00
37634;BME280;32048;49.902;22.508;2023-08-21T03:49:57;99151.19;;;19.32;100.00
37634;BME280;32048;49.902;22.508;2023-08-21T03:52:25;99148.28;;;19.36;100.00
37634;BME280;32048;49.902;22.508;2023-08-21T03:54:51;99148.63;;;19.42;100.00
37634;BME280;32048;49.902;22.508;2023-08-21T03:57:19;99147.78;;;19.42;100.00
37634;BME280;32048;49.902;22.508;2023-08-21T03:59:46;99150.81;;;19.48;100.00
37634;BME280;32048;49.902;22.508;2023-08-21T04:02:13;99155.66;;;19.55;100.00
37634;BME280;32048;49.902;22.508;2023-08-21T04:04:40;99151.63;;;19.60;100.00
37634;BME280;32048;49.902;22.508;2023-08-21T04:07:07;99159.66;;;19.71;100.00
37634;BME280;32048;49.902;22.508;2023-08-21T04:09:34;99157.03;;;19.81;100.00
37634;BME280;32048;49.902;22.508;2023-08-21T04:12:01;99162.72;;;19.88;100.00
37634;BME280;32048;49.902;22.508;2023-08-21T04:14:28;99164.53;;;19.99;100.00
37634;BME280;32048;49.902;22.508;2023-08-21T04:16:55;99170.53;;;20.12;100.00
37634;BME280;32048;49.902;22.508;2023-08-21T04:19:22;99169.63;;;20.23;100.00
37634;BME280;32048;49.902;22.508;2023-08-21T04:21:49;99166.88;;;20.34;100.00
37634;BME280;32048;49.902;22.508;2023-08-21T04:26:43;99170.78;;;20.72;100.00
37634;BME280;32048;49.902;22.508;2023-08-21T04:29:10;99168.16;;;20.91;100.00
37634;BME280;32048;49.902;22.508;2023-08-21T04:31:38;99174.34;;;21.13;100.00
37634;BME280;32048;49.902;22.508;2023-08-21T04:34:05;99175.94;;;21.35;100.00
37634;BME280;32048;49.902;22.508;2023-08-21T04:36:32;99174.19;;;21.55;100.00
37634;BME280;32048;49.902;22.508;2023-08-21T04:38:59;99178.84;;;21.72;100.00
37634;BME280;32048;49.902;22.508;2023-08-21T04:41:26;99177.47;;;21.97;100.00
37634;BME280;32048;49.902;22.508;2023-08-21T04:43:53;99183.94;;;22.24;100.00
37634;BME280;32048;49.902;22.508;2023-08-21T04:46:20;99186.63;;;22.53;100.00
37634;BME280;32048;49.902;22.508;2023-08-21T04:48:48;99181.53;;;22.88;100.00
37634;BME280;32048;49.902;22.508;2023-08-21T04:51:15;99192.91;;;23.19;100.00
37634;BME280;32048;49.902;22.508;2023-08-21T04:53:42;99190.28;;;23.55;100.00
37634;BME280;32048;49.902;22.508;2023-08-21T04:56:09;99196.56;;;23.91;100.00
37634;BME280;32048;49.902;22.508;2023-08-21T04:58:36;99185.38;;;24.22;100.00
37634;BME280;32048;49.902;22.508;2023-08-21T05:01:04;99193.81;;;24.45;100.00
37634;BME280;32048;49.902;22.508;2023-08-21T05:03:31;99189.72;;;24.59;100.00
37634;BME280;32048;49.902;22.508;2023-08-21T05:05:59;99186.91;;;24.68;100.00
37634;BME280;32048;49.902;22.508;2023-08-21T05:08:26;99188.88;;;24.84;100.00
37634;BME280;32048;49.902;22.508;2023-08-21T05:10:59;99183.69;;;24.99;100.00
37634;BME280;32048;49.902;22.508;2023-08-21T05:13:26;99180.28;;;25.23;99.26
37634;BME280;32048;49.902;22.508;2023-08-21T05:15:57;99183.59;;;25.51;96.84
37634;BME280;32048;49.902;22.508;2023-08-21T05:18:25;99182.97;;;25.74;95.55
37634;BME280;32048;49.902;22.508;2023-08-21T05:20:54;99188.41;;;26.07;93.17
37634;BME280;32048;49.902;22.508;2023-08-21T05:23:22;99184.88;;;26.39;92.72
37634;BME280;32048;49.902;22.508;2023-08-21T05:25:49;99190.09;;;26.65;87.51
37634;BME280;32048;49.902;22.508;2023-08-21T05:28:16;99191.25;;;26.79;85.48
37634;BME280;32048;49.902;22.508;2023-08-21T05:30:46;99193.72;;;26.97;86.90
37634;BME280;32048;49.902;22.508;2023-08-21T05:33:13;99196.19;;;27.31;84.47
37634;BME280;32048;49.902;22.508;2023-08-21T05:35:41;99199.22;;;27.68;81.97
37634;BME280;32048;49.902;22.508;2023-08-21T05:38:08;99198.28;;;28.07;81.38
37634;BME280;32048;49.902;22.508;2023-08-21T05:40:36;99194.56;;;28.46;76.20
37634;BME280;32048;49.902;22.508;2023-08-21T05:43:03;99193.97;;;28.73;74.24
37634;BME280;32048;49.902;22.508;2023-08-21T05:45:31;99192.94;;;28.89;73.50
37634;BME280;32048;49.902;22.508;2023-08-21T05:47:58;99195.69;;;29.04;72.17
37634;BME280;32048;49.902;22.508;2023-08-21T05:50:26;99194.53;;;29.28;72.40
37634;BME280;32048;49.902;22.508;2023-08-21T05:52:53;99200.69;;;29.67;70.84
37634;BME280;32048;49.902;22.508;2023-08-21T05:55:21;99198.91;;;29.95;68.06
37634;BME280;32048;49.902;22.508;2023-08-21T05:57:48;99201.03;;;30.00;65.87
37634;BME280;32048;49.902;22.508;2023-08-21T06:00:16;99197.94;;;30.03;68.17
37634;BME280;32048;49.902;22.508;2023-08-21T06:02:43;99197.63;;;30.34;68.06
37634;BME280;32048;49.902;22.508;2023-08-21T06:05:10;99193.88;;;30.63;64.79
37634;BME280;32048;49.902;22.508;2023-08-21T06:07:37;99195.34;;;30.88;63.56
37634;BME280;32048;49.902;22.508;2023-08-21T06:10:05;99195.22;;;31.09;63.28
37634;BME280;32048;49.902;22.508;2023-08-21T06:12:33;99202.78;;;31.42;60.45
37634;BME280;32048;49.902;22.508;2023-08-21T06:15:00;99190.88;;;31.69;59.24
37634;BME280;32048;49.902;22.508;2023-08-21T06:17:27;99195.13;;;31.92;57.75
37634;BME280;32048;49.902;22.508;2023-08-21T06:19:54;99190.72;;;31.84;57.75
37634;BME280;32048;49.902;22.508;2023-08-21T06:22:22;99179.13;;;31.69;58.99
37634;BME280;32048;49.902;22.508;2023-08-21T06:24:49;99189.66;;;31.85;58.56
37634;BME280;32048;49.902;22.508;2023-08-21T06:27:16;99191.59;;;31.98;59.21
37634;BME280;32048;49.902;22.508;2023-08-21T06:29:43;99194.38;;;32.25;57.04
37634;BME280;32048;49.902;22.508;2023-08-21T06:32:10;99193.94;;;32.21;57.06
37634;BME280;32048;49.902;22.508;2023-08-21T06:34:37;99194.38;;;32.18;56.31
37634;BME280;32048;49.902;22.508;2023-08-21T06:37:04;99191.63;;;32.18;57.19
37634;BME280;32048;49.902;22.508;2023-08-21T06:39:32;99198.97;;;32.44;54.38
37634;BME280;32048;49.902;22.508;2023-08-21T06:41:59;99193.13;;;32.67;54.42
37634;BME280;32048;49.902;22.508;2023-08-21T06:44:27;99199.41;;;32.88;54.65
37634;BME280;32048;49.902;22.508;2023-08-21T06:46:54;99197.47;;;33.15;53.13
37634;BME280;32048;49.902;22.508;2023-08-21T06:49:21;99195.25;;;33.44;52.25
37634;BME280;32048;49.902;22.508;2023-08-21T06:51:48;99200.03;;;33.55;51.66
37634;BME280;32048;49.902;22.508;2023-08-21T06:54:16;99190.41;;;33.46;50.74
37634;BME280;32048;49.902;22.508;2023-08-21T06:56:44;99187.06;;;33.37;52.66
37634;BME280;32048;49.902;22.508;2023-08-21T06:59:11;99190.75;;;33.56;51.67
37634;BME280;32048;49.902;22.508;2023-08-21T07:01:38;99193.28;;;33.58;50.54
37634;BME280;32048;49.902;22.508;2023-08-21T07:04:06;99191.78;;;33.68;50.48
37634;BME280;32048;49.902;22.508;2023-08-21T07:06:33;99197.22;;;33.75;49.76
37634;BME280;32048;49.902;22.508;2023-08-21T07:09:00;99207.13;;;34.08;50.55
37634;BME280;32048;49.902;22.508;2023-08-21T07:11:27;99205.50;;;34.57;47.94
37634;BME280;32048;49.902;22.508;2023-08-21T07:13:55;99201.00;;;34.69;48.46
37634;BME280;32048;49.902;22.508;2023-08-21T07:16:22;99201.66;;;34.65;48.07
37634;BME280;32048;49.902;22.508;2023-08-21T07:18:50;99196.00;;;34.85;48.30
37634;BME280;32048;49.902;22.508;2023-08-21T07:21:17;99199.38;;;35.24;47.38
37634;BME280;32048;49.902;22.508;2023-08-21T07:23:59;99205.28;;;36.06;45.01
37634;BME280;32048;49.902;22.508;2023-08-21T07:26:26;99210.56;;;36.85;41.62
37634;BME280;32048;49.902;22.508;2023-08-21T07:28:53;99202.66;;;37.53;41.04
37634;BME280;32048;49.902;22.508;2023-08-21T07:31:20;99211.97;;;38.38;38.38
37634;BME280;32048;49.902;22.508;2023-08-21T07:33:48;99210.69;;;39.13;35.72
37634;BME280;32048;49.902;22.508;2023-08-21T07:36:15;99217.72;;;39.65;35.18
37634;BME280;32048;49.902;22.508;2023-08-21T07:38:45;99216.09;;;40.18;34.27
37634;BME280;32048;49.902;22.508;2023-08-21T07:41:12;99217.03;;;40.66;33.79
37634;BME280;32048;49.902;22.508;2023-08-21T07:43:41;99219.38;;;41.22;33.68
37634;BME280;32048;49.902;22.508;2023-08-21T07:46:10;99221.25;;;41.74;33.50
37634;BME280;32048;49.902;22.508;2023-08-21T07:48:40;99224.13;;;42.10;31.62
37634;BME280;32048;49.902;22.508;2023-08-21T07:51:13;99228.59;;;42.32;31.75
37634;BME280;32048;49.902;22.508;2023-08-21T07:53:41;99225.50;;;42.13;30.49
37634;BME280;32048;49.902;22.508;2023-08-21T07:56:08;99233.50;;;41.94;31.54
37634;BME280;32048;49.902;22.508;2023-08-21T07:58:35;99222.13;;;41.95;31.33
37634;BME280;32048;49.902;22.508;2023-08-21T08:01:02;99241.31;;;42.12;30.46
37634;BME280;32048;49.902;22.508;2023-08-21T08:03:31;99230.47;;;41.95;31.51
37634;BME280;32048;49.902;22.508;2023-08-21T08:05:59;99234.13;;;42.11;30.31
37634;BME280;32048;49.902;22.508;2023-08-21T08:08:27;99228.88;;;42.51;30.10
37634;BME280;32048;49.902;22.508;2023-08-21T08:11:00;99228.56;;;42.78;30.02
37634;BME280;32048;49.902;22.508;2023-08-21T08:13:28;99223.53;;;43.11;30.27
37634;BME280;32048;49.902;22.508;2023-08-21T08:15:55;99223.53;;;43.11;28.85
37634;BME280;32048;49.902;22.508;2023-08-21T08:18:22;99230.16;;;43.30;29.76
37634;BME280;32048;49.902;22.508;2023-08-21T08:20:49;99228.91;;;43.62;28.71
37634;BME280;32048;49.902;22.508;2023-08-21T08:23:16;99224.06;;;43.83;28.54
37634;BME280;32048;49.902;22.508;2023-08-21T08:25:47;99228.94;;;43.57;27.95
37634;BME280;32048;49.902;22.508;2023-08-21T08:28:14;99222.94;;;43.34;28.84
37634;BME280;32048;49.902;22.508;2023-08-21T08:30:41;99224.59;;;43.30;29.15
37634;BME280;32048;49.902;22.508;2023-08-21T08:33:08;99212.13;;;43.07;27.83
37634;BME280;32048;49.902;22.508;2023-08-21T08:35:35;99229.69;;;42.62;29.95
37634;BME280;32048;49.902;22.508;2023-08-21T08:38:03;99220.50;;;42.71;30.21
37634;BME280;32048;49.902;22.508;2023-08-21T08:40:30;99220.25;;;42.68;28.73
37634;BME280;32048;49.902;22.508;2023-08-21T08:42:58;99217.78;;;42.41;28.93
37634;BME280;32048;49.902;22.508;2023-08-21T08:45:29;99216.91;;;42.20;30.57
37634;BME280;32048;49.902;22.508;2023-08-21T08:48:00;99223.28;;;42.10;29.85
37634;BME280;32048;49.902;22.508;2023-08-21T08:53:39;99216.22;;;41.61;29.96
37634;BME280;32048;49.902;22.508;2023-08-21T08:56:09;99220.16;;;41.75;30.23
37634;BME280;32048;49.902;22.508;2023-08-21T08:58:37;99223.50;;;41.83;29.00
37634;BME280;32048;49.902;22.508;2023-08-21T09:01:04;99219.28;;;41.65;29.92
37634;BME280;32048;49.902;22.508;2023-08-21T09:03:34;99215.47;;;41.91;29.91
37634;BME280;32048;49.902;22.508;2023-08-21T09:06:01;99217.22;;;42.49;29.20
37634;BME280;32048;49.902;22.508;2023-08-21T09:08:29;99214.06;;;43.12;28.82
37634;BME280;32048;49.902;22.508;2023-08-21T09:11:01;99203.75;;;43.17;28.00
37634;BME280;32048;49.902;22.508;2023-08-21T09:13:28;99209.22;;;43.43;28.01
37634;BME280;32048;49.902;22.508;2023-08-21T09:15:55;99202.91;;;43.32;27.25
37634;BME280;32048;49.902;22.508;2023-08-21T09:18:22;99192.50;;;42.83;27.36
37634;BME280;32048;49.902;22.508;2023-08-21T09:20:49;99200.25;;;42.55;27.57
37634;BME280;32048;49.902;22.508;2023-08-21T09:23:18;99197.75;;;42.23;28.63
37634;BME280;32048;49.902;22.508;2023-08-21T09:25:46;99194.47;;;42.52;28.03
37634;BME280;32048;49.902;22.508;2023-08-21T09:28:19;99196.94;;;42.74;28.14
37634;BME280;32048;49.902;22.508;2023-08-21T09:30:53;99190.72;;;43.13;28.76
37634;BME280;32048;49.902;22.508;2023-08-21T09:33:22;99188.47;;;43.30;27.09
37634;BME280;32048;49.902;22.508;2023-08-21T09:35:54;99181.25;;;43.14;27.60
37634;BME280;32048;49.902;22.508;2023-08-21T09:38:22;99178.47;;;43.14;28.03
37634;BME280;32048;49.902;22.508;2023-08-21T09:40:54;99179.63;;;43.08;27.67
37634;BME280;32048;49.902;22.508;2023-08-21T09:43:23;99166.34;;;42.84;28.15
37634;BME280;32048;49.902;22.508;2023-08-21T09:45:53;99179.16;;;42.60;28.76
37634;BME280;32048;49.902;22.508;2023-08-21T09:48:26;99175.03;;;42.52;27.92
37634;BME280;32048;49.902;22.508;2023-08-21T09:50:56;99171.38;;;42.31;27.83
37634;BME280;32048;49.902;22.508;2023-08-21T09:53:26;99167.81;;;42.41;28.92
37634;BME280;32048;49.902;22.508;2023-08-21T09:55:54;99166.66;;;42.67;29.30
37634;BME280;32048;49.902;22.508;2023-08-21T09:58:22;99166.63;;;42.88;28.03
37634;BME280;32048;49.902;22.508;2023-08-21T10:00:50;99162.22;;;42.66;28.64
37634;BME280;32048;49.902;22.508;2023-08-21T10:03:20;99153.06;;;43.46;27.81
37634;BME280;32048;49.902;22.508;2023-08-21T10:05:48;99157.63;;;43.27;27.27
37634;BME280;32048;49.902;22.508;2023-08-21T10:08:18;99161.34;;;42.91;28.67
37634;BME280;32048;49.902;22.508;2023-08-21T10:10:48;99155.00;;;42.55;28.05
37634;BME280;32048;49.902;22.508;2023-08-21T10:13:15;99157.78;;;42.04;29.20
37634;BME280;32048;49.902;22.508;2023-08-21T10:15:43;99162.75;;;41.71;28.94
37634;BME280;32048;49.902;22.508;2023-08-21T10:18:21;99154.41;;;41.71;28.43
37634;BME280;32048;49.902;22.508;2023-08-21T10:20:51;99153.31;;;41.87;28.30
37634;BME280;32048;49.902;22.508;2023-08-21T10:23:30;99151.50;;;41.30;29.68
37634;BME280;32048;49.902;22.508;2023-08-21T10:26:00;99154.38;;;40.92;31.15
37634;BME280;32048;49.902;22.508;2023-08-21T10:29:01;99157.19;;;41.03;31.46
37634;BME280;32048;49.902;22.508;2023-08-21T10:31:33;99148.31;;;41.79;29.26
37634;BME280;32048;49.902;22.508;2023-08-21T10:34:07;99143.63;;;42.36;28.36
37634;BME280;32048;49.902;22.508;2023-08-21T10:39:28;99141.34;;;42.79;27.63
37634;BME280;32048;49.902;22.508;2023-08-21T10:42:02;99147.22;;;42.57;28.08
37634;BME280;32048;49.902;22.508;2023-08-21T10:47:18;99149.31;;;41.42;28.96
37634;BME280;32048;49.902;22.508;2023-08-21T10:49:47;99146.00;;;41.50;29.49
37634;BME280;32048;49.902;22.508;2023-08-21T10:52:18;99139.97;;;41.59;29.56
37634;BME280;32048;49.902;22.508;2023-08-21T10:54:48;99140.81;;;41.64;29.76
37634;BME280;32048;49.902;22.508;2023-08-21T10:57:15;99139.44;;;41.72;30.15
37634;BME280;32048;49.902;22.508;2023-08-21T10:59:56;99128.47;;;41.19;29.76
37634;BME280;32048;49.902;22.508;2023-08-21T11:02:25;99139.91;;;40.85;30.21
37634;BME280;32048;49.902;22.508;2023-08-21T11:04:53;99131.56;;;40.70;30.62
37634;BME280;32048;49.902;22.508;2023-08-21T11:07:20;99139.91;;;40.43;31.41
37634;BME280;32048;49.902;22.508;2023-08-21T11:09:48;99136.78;;;40.71;33.35
37634;BME280;32048;49.902;22.508;2023-08-21T11:12:20;99136.75;;;41.14;31.56
37634;BME280;32048;49.902;22.508;2023-08-21T11:14:49;99145.13;;;41.24;31.13
37634;BME280;32048;49.902;22.508;2023-08-21T11:17:16;99142.03;;;41.16;31.05
37634;BME280;32048;49.902;22.508;2023-08-21T11:20:01;99138.56;;;40.88;30.00
37634;BME280;32048;49.902;22.508;2023-08-21T11:22:31;99139.06;;;40.75;32.00
37634;BME280;32048;49.902;22.508;2023-08-21T11:24:59;99134.03;;;41.24;30.92
37634;BME280;32048;49.902;22.508;2023-08-21T11:27:27;99140.81;;;41.69;30.24
37634;BME280;32048;49.902;22.508;2023-08-21T11:29:54;99134.97;;;41.66;30.16
37634;BME280;32048;49.902;22.508;2023-08-21T11:32:22;99129.19;;;41.78;29.67
37634;BME280;32048;49.902;22.508;2023-08-21T11:34:57;99139.72;;;41.81;29.21
37634;BME280;32048;49.902;22.508;2023-08-21T11:37:26;99121.69;;;41.73;28.19
37634;BME280;32048;49.902;22.508;2023-08-21T11:39:55;99124.66;;;41.41;29.09
37634;BME280;32048;49.902;22.508;2023-08-21T11:42:31;99125.84;;;41.65;28.04
37634;BME280;32048;49.902;22.508;2023-08-21T11:45:03;99121.34;;;41.49;28.26
37634;BME280;32048;49.902;22.508;2023-08-21T11:47:34;99126.84;;;41.39;29.04
37634;BME280;32048;49.902;22.508;2023-08-21T11:50:06;99122.69;;;41.31;28.89
37634;BME280;32048;49.902;22.508;2023-08-21T11:52:34;99121.25;;;41.13;29.25
37634;BME280;32048;49.902;22.508;2023-08-21T11:55:11;99118.63;;;40.86;29.40
37634;BME280;32048;49.902;22.508;2023-08-21T11:57:51;99114.28;;;40.63;31.18
37634;BME280;32048;49.902;22.508;2023-08-21T12:00:19;99111.63;;;40.36;30.57
37634;BME280;32048;49.902;22.508;2023-08-21T12:03:00;99114.38;;;39.71;31.04
37634;BME280;32048;49.902;22.508;2023-08-21T12:05:28;99113.09;;;39.29;32.78
37634;BME280;32048;49.902;22.508;2023-08-21T12:07:55;99109.72;;;38.83;33.25
37634;BME280;32048;49.902;22.508;2023-08-21T12:10:25;99111.44;;;38.67;34.21
37634;BME280;32048;49.902;22.508;2023-08-21T12:12:55;99112.88;;;38.70;34.14
37634;BME280;32048;49.902;22.508;2023-08-21T12:15:23;99115.13;;;38.73;35.14
37634;BME280;32048;49.902;22.508;2023-08-21T12:17:50;99117.78;;;38.85;34.88
37634;BME280;32048;49.902;22.508;2023-08-21T12:20:18;99115.84;;;38.85;34.05
37634;BME280;32048;49.902;22.508;2023-08-21T12:22:45;99119.50;;;38.52;34.41
37634;BME280;32048;49.902;22.508;2023-08-21T12:25:29;99124.44;;;38.16;35.23
37634;BME280;32048;49.902;22.508;2023-08-21T12:27:58;99128.09;;;37.88;35.83
37634;BME280;32048;49.902;22.508;2023-08-21T12:30:35;99139.03;;;37.54;36.45
37634;BME280;32048;49.902;22.508;2023-08-21T12:33:03;99139.03;;;37.26;38.24
37634;BME280;32048;49.902;22.508;2023-08-21T12:35:48;99140.06;;;36.72;39.46
37634;BME280;32048;49.902;22.508;2023-08-21T12:38:14;99139.63;;;36.10;41.67
37634;BME280;32048;49.902;22.508;2023-08-21T12:40:42;99139.09;;;35.47;43.28
37634;BME280;32048;49.902;22.508;2023-08-21T12:43:09;99135.22;;;34.99;44.95
37634;BME280;32048;49.902;22.508;2023-08-21T12:45:36;99137.13;;;34.62;46.85
37634;BME280;32048;49.902;22.508;2023-08-21T12:48:04;99130.84;;;34.30;47.51
37634;BME280;32048;49.902;22.508;2023-08-21T12:50:31;99123.44;;;34.05;48.73
37634;BME280;32048;49.902;22.508;2023-08-21T12:52:59;99131.16;;;33.90;49.58
37634;BME280;32048;49.902;22.508;2023-08-21T12:55:28;99135.41;;;33.86;50.41
37634;BME280;32048;49.902;22.508;2023-08-21T12:57:58;99126.78;;;33.82;50.84
37634;BME280;32048;49.902;22.508;2023-08-21T13:00:25;99130.00;;;33.79;50.79
37634;BME280;32048;49.902;22.508;2023-08-21T13:02:52;99123.44;;;33.80;49.69
37634;BME280;32048;49.902;22.508;2023-08-21T13:05:20;99128.13;;;33.73;50.03